Northwood, IA (50459)

11:07 PM CDT on April 27, 2017 (GMT -0500)
KMNGLENV5 | | Change Station

Elev 1320 ft 43.54 °N, 93.24 °W | Updated 7 minutes ago

Mostly Cloudy
Mostly Cloudy
33.3 °F
Feels Like 22 °F
N
17.4
Wind Variable Wind from NE
Gusts 25.9 mph

Today
High -- | Low -- °F
--% Chance of Precip.
Yesterday
High -- | Low -- °F
Precip. -- in
Pressure 29.83 in
Visibility 10.0 miles
Clouds Overcast 2300 ft
Windchill 22 °F
Dew Point 17 °F
Humidity 50%
Rainfall 0.00 in
Snow Depth Not available.
6:11 AM 8:10 PM
Waxing Crescent, 4% visible
METAR KAEL 280355Z AUTO 29013G18KT 10SM OVC023 01/M04 A2983 RMK AO2
Pressure 29.83 in
Visibility 10.0 miles
Clouds Overcast 2300 ft
Windchill 22 °F
Dew Point 17 °F
Humidity 50%
Rainfall 0.00 in
Snow Depth Not available.
6:11 AM 8:10 PM
Waxing Crescent, 4% visible
METAR KAEL 280355Z AUTO 29013G18KT 10SM OVC023 01/M04 A2983 RMK AO2

Get Severe Weather Alerts

Thanks for signing up!

Be on the lookout for a verification email in your inbox.

You'll start receiving the daily forecast at 8 AM.

×

10-Day Weather Forecast

Almanac

Astronomy

Apr. 27, 2017 Rise Set
Actual Time
Civil Twilight
Nautical Twilight
Astronomical Twilight
Moon
Length of Visible Light
Length of Day
Tomorrow will be .
, % of the Moon is Illuminated

Today's Extremes

State Highs State Lows

Community

WunderPhotos

WunderBlog® & News

Nearby

Air Quality

  Air Quality AQ Index Pollutant
Not available.

Snow Depth

Station Depth Elevation

Earthquake Activity

City Distance Mag. Time & Date
Minimum magnitude displayed is 2.5.

Coastal Water Temperatures

Place Temperature

Stations

Nearby Weather Stations

Station Location Temp. Windchill Dew Point Humidity Wind Precip. Elev Updated Type
                   

Watches & Warnings

There are currently no watches in effect.